Stations météo

Publicité
Cluanie Inn No 3, Grande-Bretagne (99117): Température de l'air & dewpoint: 14.04.2018 09:00:00 - 20.04.2018 09:00:00 (BST)Cluanie Inn No 3, Grande-Bretagne (99117): Quantités de précipitations: 14.04.2018 09:00:00 - 20.04.2018 09:00:00 (BST)
Date & Time tt [°C] td [°C] rr [mm]
20.04.2018 09:00:00 10,9 6,0 0,0
20.04.2018 08:00:00 10,0 4,2 0,0
20.04.2018 07:00:00 9,1 4,9 0,0
20.04.2018 06:00:00 8,5 5,6 0,0
20.04.2018 05:00:00 8,1 5,5 0,0
20.04.2018 04:00:00 7,7 4,8 0,0
20.04.2018 03:00:00 7,0 4,8 0,0
20.04.2018 02:00:00 6,4 3,7 0,0
20.04.2018 01:00:00 7,4 4,2 0,0
20.04.2018 00:00:00 7,9 4,0 0,0
19.04.2018 23:00:00 7,9 3,8 0,0
19.04.2018 22:00:00 8,5 4,0 0,0
19.04.2018 21:00:00 10,4 4,9 0,0
19.04.2018 20:00:00 11,1 6,1 0,0
19.04.2018 19:00:00 11,9 7,4 0,2
19.04.2018 18:00:00 11,8 8,8 0,0
19.04.2018 17:00:00 12,7 8,5 0,0
19.04.2018 16:00:00 13,2 7,8 0,0
19.04.2018 15:00:00 12,9 8,0 0,0
19.04.2018 14:00:00 13,3 7,6 0,0
19.04.2018 13:00:00 13,7 7,5 0,0
19.04.2018 12:00:00 13,8 7,3 0,0
19.04.2018 11:00:00 13,1 7,4 0,0
19.04.2018 10:00:00 13,0 7,8 0,0
19.04.2018 09:00:00 12,8 7,7 0,0
19.04.2018 08:00:00 - - -
19.04.2018 07:00:00 - - -
19.04.2018 06:00:00 - - -
19.04.2018 05:00:00 - - -
19.04.2018 04:00:00 - - -
19.04.2018 03:00:00 - - -
19.04.2018 02:00:00 15,1 7,7 0,0
19.04.2018 01:00:00 15,9 7,5 0,0
19.04.2018 00:00:00 16,6 8,2 0,0
18.04.2018 23:00:00 17,1 8,5 0,0
18.04.2018 22:00:00 16,8 8,3 0,0
18.04.2018 21:00:00 16,4 8,4 0,0
18.04.2018 20:00:00 15,3 8,2 0,0
18.04.2018 19:00:00 15,2 8,2 0,0
18.04.2018 18:00:00 14,4 9,1 0,0
18.04.2018 17:00:00 13,5 8,8 0,0
18.04.2018 16:00:00 13,2 6,8 0,0
18.04.2018 15:00:00 13,5 8,2 0,0
18.04.2018 14:00:00 14,0 8,0 0,0
18.04.2018 13:00:00 13,8 8,0 0,0
18.04.2018 12:00:00 12,4 7,9 0,0
18.04.2018 11:00:00 12,1 7,2 0,0
18.04.2018 10:00:00 11,9 6,9 0,0
18.04.2018 09:00:00 11,6 6,5 0,0
18.04.2018 08:00:00 10,9 6,5 0,0
18.04.2018 07:00:00 10,0 6,7 0,0
18.04.2018 06:00:00 10,1 6,2 0,2
18.04.2018 05:00:00 10,2 6,4 0,4
18.04.2018 04:00:00 10,0 7,0 0,4
18.04.2018 03:00:00 9,9 7,9 1,8
18.04.2018 02:00:00 10,6 7,3 1,0
18.04.2018 01:00:00 10,2 7,1 2,0
18.04.2018 00:00:00 11,4 5,9 0,0
17.04.2018 23:00:00 11,5 6,5 0,0
17.04.2018 22:00:00 10,9 7,2 0,4
17.04.2018 21:00:00 11,1 7,3 1,6
17.04.2018 20:00:00 12,3 6,3 0,0
17.04.2018 19:00:00 12,5 6,3 0,0
17.04.2018 18:00:00 12,1 6,6 1,4
17.04.2018 17:00:00 12,0 7,1 0,6
17.04.2018 16:00:00 12,5 7,0 0,2
17.04.2018 15:00:00 12,9 6,6 0,0
17.04.2018 14:00:00 11,5 6,6 0,4
17.04.2018 13:00:00 12,2 6,2 0,0
17.04.2018 12:00:00 11,2 6,5 0,0
17.04.2018 11:00:00 11,4 5,5 0,0
17.04.2018 10:00:00 10,9 6,2 2,2
17.04.2018 09:00:00 10,8 6,9 5,4
17.04.2018 08:00:00 8,8 7,4 7,4
17.04.2018 07:00:00 8,4 7,1 5,0
17.04.2018 06:00:00 8,5 6,7 3,6
17.04.2018 05:00:00 8,5 6,4 1,8
17.04.2018 04:00:00 8,8 6,3 0,8
17.04.2018 03:00:00 8,9 6,2 0,2
17.04.2018 02:00:00 9,0 5,6 0,2
17.04.2018 01:00:00 8,3 5,3 0,0
17.04.2018 00:00:00 8,2 5,1 0,0
16.04.2018 23:00:00 8,3 4,7 0,0
16.04.2018 22:00:00 9,5 3,8 0,0
16.04.2018 21:00:00 9,9 2,8 0,0
16.04.2018 20:00:00 10,6 2,1 0,0
16.04.2018 19:00:00 10,3 2,2 0,0
16.04.2018 18:00:00 10,6 2,2 0,0
16.04.2018 17:00:00 10,7 1,1 0,0
16.04.2018 16:00:00 11,6 4,4 0,0
16.04.2018 15:00:00 11,2 4,5 0,0
16.04.2018 14:00:00 11,1 4,7 0,0
16.04.2018 13:00:00 10,9 6,0 0,0
16.04.2018 12:00:00 10,8 7,5 0,2
16.04.2018 11:00:00 9,6 8,2 0,0
16.04.2018 10:00:00 9,7 7,2 0,2
16.04.2018 09:00:00 9,6 6,0 0,0
16.04.2018 08:00:00 8,9 5,6 0,0
16.04.2018 07:00:00 8,6 5,2 0,0
16.04.2018 06:00:00 8,1 5,0 0,0
16.04.2018 05:00:00 8,3 5,1 0,0
16.04.2018 04:00:00 8,2 4,8 0,0
16.04.2018 03:00:00 8,2 4,8 0,0
16.04.2018 02:00:00 8,3 4,7 0,0
16.04.2018 01:00:00 8,2 4,7 0,0
16.04.2018 00:00:00 8,3 4,5 0,0
15.04.2018 23:00:00 8,3 4,9 0,0
15.04.2018 22:00:00 9,1 5,5 0,0
15.04.2018 21:00:00 9,9 5,5 0,0
15.04.2018 20:00:00 10,2 5,6 0,0
15.04.2018 19:00:00 11,3 5,5 0,0
15.04.2018 18:00:00 13,0 6,1 0,0
15.04.2018 17:00:00 12,5 5,6 0,0
15.04.2018 16:00:00 13,9 5,4 0,0
15.04.2018 15:00:00 12,9 4,0 0,0
15.04.2018 14:00:00 13,5 3,8 0,0
15.04.2018 13:00:00 14,5 5,3 0,0
15.04.2018 12:00:00 14,2 5,7 0,0
15.04.2018 11:00:00 12,9 5,6 0,0
15.04.2018 10:00:00 10,9 5,6 0,0
15.04.2018 09:00:00 7,9 4,3 0,0
15.04.2018 08:00:00 5,4 3,2 0,0
15.04.2018 07:00:00 3,5 2,8 0,0
15.04.2018 06:00:00 3,7 2,7 0,0
15.04.2018 05:00:00 4,3 3,0 0,0
15.04.2018 04:00:00 4,6 2,8 0,0
15.04.2018 03:00:00 4,8 3,0 0,0
15.04.2018 02:00:00 6,1 3,7 0,0
15.04.2018 01:00:00 6,1 3,4 0,0
15.04.2018 00:00:00 6,8 4,0 0,0
14.04.2018 23:00:00 7,9 4,7 0,0
14.04.2018 22:00:00 8,5 4,6 0,0
14.04.2018 21:00:00 9,8 5,1 0,0
14.04.2018 20:00:00 10,4 5,2 0,0
14.04.2018 19:00:00 11,4 4,2 0,0
14.04.2018 18:00:00 11,7 4,1 0,0
14.04.2018 17:00:00 12,1 3,8 0,0
14.04.2018 16:00:00 13,4 5,4 0,0
14.04.2018 15:00:00 12,8 4,3 0,0
14.04.2018 14:00:00 11,8 3,9 0,0
14.04.2018 13:00:00 12,9 5,0 0,0
14.04.2018 12:00:00 13,4 5,5 0,0
14.04.2018 11:00:00 11,4 4,8 0,0
14.04.2018 10:00:00 10,0 5,6 0,0
14.04.2018 09:00:00 8,0 5,5 0,0

tt = Température de l'air
td = dewpoint
rr = Quantités de précipitations

stations d'obs. à proximité